createdAt,value
2023-04-16T00:00:03.883Z,8.18
2023-04-16T00:02:38.728Z,8.18
2023-04-16T00:05:06.955Z,8.12
2023-04-16T00:07:34.538Z,8.14
2023-04-16T00:10:02.259Z,8.14
2023-04-16T00:12:31.249Z,8.11
2023-04-16T00:14:58.827Z,8.23
2023-04-16T00:17:26.659Z,8.11
2023-04-16T00:19:54.221Z,8.07
2023-04-16T00:22:21.742Z,8.08
2023-04-16T00:24:49.299Z,8.12
2023-04-16T00:27:16.879Z,8.10
2023-04-16T00:29:45.794Z,8.15
2023-04-16T00:32:13.330Z,8.14
2023-04-16T00:34:40.861Z,8.18
2023-04-16T00:37:08.386Z,8.23
2023-04-16T00:39:36.095Z,8.19
2023-04-16T00:42:03.653Z,8.27
2023-04-16T00:44:31.166Z,8.32
2023-04-16T00:47:00.452Z,8.22
2023-04-16T00:49:28.426Z,8.26
2023-04-16T00:51:57.775Z,8.29
2023-04-16T00:54:26.565Z,8.22
2023-04-16T00:56:54.328Z,8.23
2023-04-16T00:59:22.764Z,8.21
2023-04-16T01:01:50.437Z,8.21
2023-04-16T01:04:19.500Z,8.30
2023-04-16T01:06:47.133Z,8.25
2023-04-16T01:09:15.237Z,8.27
2023-04-16T01:11:42.808Z,8.29
2023-04-16T01:14:10.351Z,8.35
2023-04-16T01:16:38.876Z,8.36
2023-04-16T01:19:07.777Z,8.33
2023-04-16T01:21:36.882Z,8.33
2023-04-16T01:24:05.129Z,8.31
2023-04-16T01:26:34.094Z,8.33
2023-04-16T01:29:01.659Z,8.31
2023-04-16T01:31:29.236Z,8.38
2023-04-16T01:34:02.387Z,8.39
2023-04-16T01:36:29.915Z,8.40
2023-04-16T01:38:59.251Z,8.40
2023-04-16T01:41:27.675Z,8.39
2023-04-16T01:43:55.250Z,8.40
2023-04-16T01:46:29.217Z,8.42
2023-04-16T01:48:57.400Z,8.51
2023-04-16T01:51:25.556Z,8.51
2023-04-16T01:53:53.119Z,8.50
2023-04-16T01:56:22.032Z,8.50
2023-04-16T01:58:49.621Z,8.52
2023-04-16T02:01:19.087Z,8.49
2023-04-16T02:03:48.246Z,8.47
2023-04-16T02:06:16.474Z,8.56
2023-04-16T02:08:44.105Z,8.46
2023-04-16T02:11:11.682Z,8.49
2023-04-16T02:13:41.124Z,8.47
2023-04-16T02:16:09.030Z,8.50
2023-04-16T02:18:56.924Z,8.46
2023-04-16T02:21:25.851Z,8.48
2023-04-16T02:23:53.538Z,8.48
2023-04-16T02:26:29.059Z,8.54
2023-04-16T02:29:01.674Z,8.54
2023-04-16T02:31:37.161Z,8.57
2023-04-16T02:34:06.091Z,8.60
2023-04-16T02:36:33.731Z,8.53
2023-04-16T02:39:01.426Z,8.58
2023-04-16T02:41:29.112Z,8.58
2023-04-16T02:43:57.066Z,8.59
2023-04-16T02:46:26.141Z,8.57
2023-04-16T02:48:53.891Z,8.66
2023-04-16T02:51:21.382Z,8.60
2023-04-16T02:53:48.926Z,8.63
2023-04-16T02:56:16.462Z,8.63
2023-04-16T02:58:43.973Z,8.63
2023-04-16T03:01:11.560Z,8.63
2023-04-16T03:03:40.906Z,8.61
2023-04-16T03:06:08.435Z,8.66
2023-04-16T03:08:35.956Z,8.73
2023-04-16T03:11:03.586Z,8.64
2023-04-16T03:13:31.125Z,8.62
2023-04-16T03:15:58.650Z,8.64
2023-04-16T03:18:26.261Z,8.62
2023-04-16T03:20:55.283Z,8.62
2023-04-16T03:23:22.834Z,8.64
2023-04-16T03:25:51.190Z,8.67
2023-04-16T03:28:19.430Z,8.68
2023-04-16T03:30:51.712Z,8.67
2023-04-16T03:33:19.680Z,8.65
2023-04-16T03:35:47.393Z,8.67
2023-04-16T03:38:16.741Z,8.66
2023-04-16T03:40:44.344Z,8.64
2023-04-16T03:43:11.900Z,8.64
2023-04-16T03:45:45.085Z,8.66
2023-04-16T03:48:13.564Z,8.73
2023-04-16T03:50:41.258Z,8.67
2023-04-16T03:53:10.311Z,8.66
2023-04-16T03:55:40.207Z,8.64
2023-04-16T03:58:09.250Z,8.65
2023-04-16T04:00:36.809Z,8.76
2023-04-16T04:03:11.336Z,8.77
2023-04-16T04:05:40.961Z,8.73
2023-04-16T04:08:10.748Z,8.72
2023-04-16T04:10:39.958Z,8.68
2023-04-16T04:13:08.646Z,8.69
2023-04-16T04:15:38.205Z,8.64
2023-04-16T04:18:06.145Z,8.66
2023-04-16T04:20:33.713Z,8.68
2023-04-16T04:23:02.521Z,8.64
2023-04-16T04:25:31.003Z,8.61
2023-04-16T04:28:00.760Z,8.65
2023-04-16T04:30:29.737Z,8.63
2023-04-16T04:32:57.393Z,8.64
2023-04-16T04:35:25.051Z,8.73
2023-04-16T04:37:53.514Z,8.73
2023-04-16T04:40:21.852Z,8.73
2023-04-16T04:42:49.421Z,8.71
2023-04-16T04:45:18.486Z,8.73
2023-04-16T04:47:46.190Z,8.77
2023-04-16T04:50:13.858Z,8.75
2023-04-16T04:52:42.029Z,8.83
2023-04-16T04:55:09.945Z,8.81
2023-04-16T04:57:37.538Z,8.80
2023-04-16T05:00:07.078Z,8.80
2023-04-16T05:02:44.276Z,8.81
2023-04-16T05:05:12.066Z,8.80
2023-04-16T05:07:39.584Z,8.83
2023-04-16T05:10:08.609Z,8.80
2023-04-16T05:12:36.285Z,8.81
2023-04-16T05:15:04.024Z,8.82
2023-04-16T05:17:31.639Z,8.89
2023-04-16T05:20:01.246Z,8.89
2023-04-16T05:22:28.765Z,8.91
2023-04-16T05:24:56.352Z,8.92
2023-04-16T05:27:24.055Z,8.91
2023-04-16T05:29:51.605Z,8.89
2023-04-16T05:32:19.230Z,8.87
2023-04-16T05:34:46.772Z,8.92
2023-04-16T05:37:15.724Z,8.93
2023-04-16T05:39:43.262Z,8.94
2023-04-16T05:42:10.830Z,8.91
2023-04-16T05:44:38.447Z,8.86
2023-04-16T05:47:07.217Z,8.90
2023-04-16T05:49:34.755Z,8.94
2023-04-16T05:52:02.413Z,9.05
2023-04-16T05:54:31.273Z,9.04
2023-04-16T05:56:58.852Z,9.02
2023-04-16T05:59:26.540Z,9.10
2023-04-16T06:01:54.276Z,9.07
2023-04-16T06:04:21.885Z,9.06
2023-04-16T06:06:49.595Z,9.05
2023-04-16T06:09:18.152Z,9.11
2023-04-16T06:11:47.107Z,9.15
2023-04-16T06:14:14.869Z,9.18
2023-04-16T06:16:42.390Z,9.23
2023-04-16T06:19:10.181Z,9.24
2023-04-16T06:21:38.700Z,9.29
2023-04-16T06:24:06.990Z,9.39
2023-04-16T06:26:34.551Z,9.37
2023-04-16T06:29:03.409Z,9.40
2023-04-16T06:31:31.191Z,9.35
2023-04-16T06:33:58.862Z,9.44
2023-04-16T06:36:27.481Z,9.39
2023-04-16T06:38:55.033Z,9.39
2023-04-16T06:41:25.440Z,9.40
2023-04-16T06:43:53.232Z,9.38
2023-04-16T06:46:22.193Z,9.42
2023-04-16T06:48:49.948Z,9.51
2023-04-16T06:51:17.545Z,9.50
2023-04-16T06:53:45.162Z,9.55
2023-04-16T06:56:12.728Z,9.45
2023-04-16T06:58:40.403Z,9.49
2023-04-16T07:01:08.109Z,9.48
2023-04-16T07:03:37.310Z,9.53
2023-04-16T07:06:05.013Z,9.60
2023-04-16T07:08:32.604Z,9.66
2023-04-16T07:11:00.281Z,9.71
2023-04-16T07:13:27.987Z,9.70
2023-04-16T07:15:55.541Z,9.78
2023-04-16T07:18:24.244Z,9.82
2023-04-16T07:20:53.165Z,9.81
2023-04-16T07:23:20.775Z,9.89
2023-04-16T07:25:48.307Z,9.88
2023-04-16T07:28:17.496Z,9.96
2023-04-16T07:30:45.167Z,9.97
2023-04-16T07:33:12.813Z,9.96
2023-04-16T07:35:40.405Z,9.94
2023-04-16T07:38:09.273Z,10.05
2023-04-16T07:40:37.625Z,10.05
2023-04-16T07:43:05.173Z,10.04
2023-04-16T07:45:32.698Z,10.12
2023-04-16T07:48:00.437Z,10.06
2023-04-16T07:50:28.071Z,10.13
2023-04-16T07:52:55.596Z,10.10
2023-04-16T07:55:24.842Z,10.13
2023-04-16T07:57:52.454Z,10.17
2023-04-16T08:00:20.105Z,10.22
2023-04-16T08:02:47.931Z,10.23
2023-04-16T08:05:15.652Z,10.26
2023-04-16T08:07:43.385Z,10.28
2023-04-16T08:10:11.195Z,10.30
2023-04-16T08:12:40.704Z,10.36
2023-04-16T08:15:09.287Z,10.39
2023-04-16T08:17:37.609Z,10.48
2023-04-16T08:20:06.362Z,10.48
2023-04-16T08:22:34.344Z,10.51
2023-04-16T08:25:01.886Z,10.40
2023-04-16T08:27:29.450Z,10.40
2023-04-16T08:29:58.304Z,10.44
2023-04-16T08:32:27.086Z,10.45
2023-04-16T08:34:54.616Z,10.45
2023-04-16T08:37:22.206Z,10.50
2023-04-16T08:39:49.726Z,10.53
2023-04-16T08:42:24.789Z,10.54
2023-04-16T08:44:58.250Z,10.54
2023-04-16T08:47:32.062Z,10.56
2023-04-16T08:50:00.192Z,10.64
2023-04-16T08:52:31.681Z,10.67
2023-04-16T08:55:06.252Z,10.74
2023-04-16T08:57:41.427Z,10.87
2023-04-16T09:00:10.096Z,10.87
2023-04-16T09:02:39.386Z,10.95
2023-04-16T09:05:08.840Z,11.02
2023-04-16T09:07:37.489Z,10.98
2023-04-16T09:10:08.040Z,11.05
2023-04-16T09:12:36.654Z,11.12
2023-04-16T09:15:06.055Z,11.20
2023-04-16T09:17:35.209Z,11.31
2023-04-16T09:20:05.758Z,11.40
2023-04-16T09:22:33.300Z,11.44
2023-04-16T09:25:00.952Z,11.52
2023-04-16T09:27:29.181Z,11.51
2023-04-16T09:29:56.701Z,11.36
2023-04-16T09:32:27.147Z,11.30
2023-04-16T09:34:57.182Z,11.29
2023-04-16T09:37:26.543Z,11.25
2023-04-16T09:39:56.329Z,11.17
2023-04-16T09:42:27.049Z,11.20
2023-04-16T09:44:56.277Z,11.06
2023-04-16T09:47:27.174Z,11.02
2023-04-16T09:49:59.903Z,10.98
2023-04-16T09:52:28.779Z,10.94
2023-04-16T09:54:56.304Z,10.97
2023-04-16T09:57:24.841Z,10.98
2023-04-16T09:59:54.628Z,11.12
2023-04-16T10:02:23.597Z,11.22
2023-04-16T10:04:52.523Z,11.19
2023-04-16T10:07:20.535Z,11.15
2023-04-16T10:09:50.551Z,11.19
2023-04-16T10:12:18.112Z,11.20
2023-04-16T10:14:46.905Z,11.32
2023-04-16T10:17:17.511Z,11.20
2023-04-16T10:19:46.450Z,11.22
2023-04-16T10:22:15.283Z,11.26
2023-04-16T10:24:44.125Z,11.14
2023-04-16T10:27:13.335Z,11.16
2023-04-16T10:29:41.615Z,10.99
2023-04-16T10:32:09.426Z,11.00
2023-04-16T10:34:37.237Z,11.02
2023-04-16T10:37:05.054Z,11.04
2023-04-16T10:39:37.275Z,11.07
2023-04-16T10:42:09.225Z,11.05
2023-04-16T10:44:38.281Z,11.10
2023-04-16T10:47:12.479Z,11.14
2023-04-16T10:49:40.302Z,11.18
2023-04-16T10:52:13.118Z,11.12
2023-04-16T10:54:41.409Z,11.10
2023-04-16T10:57:12.113Z,11.16
2023-04-16T10:59:44.020Z,11.18
2023-04-16T11:02:14.967Z,11.14
2023-04-16T11:04:44.362Z,11.07
2023-04-16T11:07:20.398Z,10.95
2023-04-16T11:09:54.123Z,10.90
2023-04-16T11:12:23.967Z,10.88
2023-04-16T11:14:54.077Z,10.87
2023-04-16T11:17:22.169Z,10.95
2023-04-16T11:19:49.781Z,11.05
2023-04-16T11:22:18.573Z,11.07
2023-04-16T11:24:48.305Z,11.12
2023-04-16T11:27:16.512Z,11.13
2023-04-16T11:29:46.334Z,11.15
2023-04-16T11:32:23.011Z,11.13
2023-04-16T11:34:51.027Z,11.09
2023-04-16T11:37:21.686Z,11.06
2023-04-16T11:39:53.400Z,10.95
2023-04-16T11:42:22.775Z,11.02
2023-04-16T11:44:55.240Z,11.00
2023-04-16T11:47:25.599Z,11.00
2023-04-16T11:49:53.436Z,10.93
2023-04-16T11:52:30.856Z,10.94
2023-04-16T11:54:59.306Z,10.99
2023-04-16T11:57:27.866Z,11.05
2023-04-16T12:00:02.185Z,11.04
2023-04-16T12:02:42.664Z,10.92
2023-04-16T12:05:30.120Z,11.02
2023-04-16T12:07:58.307Z,11.05
2023-04-16T12:10:26.969Z,11.09
2023-04-16T12:12:54.993Z,11.19
2023-04-16T12:15:22.557Z,11.26
2023-04-16T12:17:54.390Z,11.39
2023-04-16T12:20:22.032Z,11.52
2023-04-16T12:22:50.609Z,11.56
2023-04-16T12:25:19.166Z,11.62
2023-04-16T12:27:50.734Z,11.68
2023-04-16T12:30:22.923Z,11.66
2023-04-16T12:32:55.127Z,11.64
2023-04-16T12:35:31.465Z,11.66
2023-04-16T12:37:59.111Z,11.75
2023-04-16T12:40:27.403Z,11.68
2023-04-16T12:42:54.989Z,11.67
2023-04-16T12:45:23.128Z,11.68
2023-04-16T12:47:52.090Z,11.69
2023-04-16T12:50:19.693Z,11.66
2023-04-16T12:52:47.226Z,11.64
2023-04-16T12:55:15.332Z,11.62
2023-04-16T12:57:42.914Z,11.35
2023-04-16T13:00:14.667Z,11.52
2023-04-16T13:02:42.360Z,11.60
2023-04-16T13:05:11.406Z,11.60
2023-04-16T13:07:38.970Z,11.61
2023-04-16T13:10:07.344Z,11.68
2023-04-16T13:12:34.901Z,11.72
2023-04-16T13:15:02.483Z,11.71
2023-04-16T13:17:29.993Z,11.73
2023-04-16T13:19:57.561Z,11.66
2023-04-16T13:22:26.455Z,11.64
2023-04-16T13:24:54.054Z,11.52
2023-04-16T13:27:21.565Z,11.59
2023-04-16T13:29:49.179Z,11.54
2023-04-16T13:32:17.297Z,11.68
2023-04-16T13:34:45.014Z,11.68
2023-04-16T13:37:12.501Z,11.67
2023-04-16T13:39:41.427Z,11.65
2023-04-16T13:42:08.922Z,11.68
2023-04-16T13:44:36.486Z,11.52
2023-04-16T13:47:04.164Z,11.59
2023-04-16T13:49:35.508Z,11.67
2023-04-16T13:52:03.432Z,11.65
2023-04-16T13:54:31.100Z,11.66
2023-04-16T13:57:00.120Z,11.65
2023-04-16T13:59:27.732Z,11.66
2023-04-16T14:01:55.390Z,11.63
2023-04-16T14:04:23.471Z,11.67
2023-04-16T14:06:51.312Z,11.76
2023-04-16T14:09:18.910Z,11.80
2023-04-16T14:11:46.472Z,11.82
2023-04-16T14:14:15.519Z,11.85
2023-04-16T14:16:43.130Z,11.87
2023-04-16T14:19:11.199Z,11.84
2023-04-16T14:21:38.824Z,11.80
2023-04-16T14:24:07.155Z,11.70
2023-04-16T14:26:34.785Z,11.71
2023-04-16T14:29:02.362Z,11.75
2023-04-16T14:31:33.482Z,11.74
2023-04-16T14:34:01.186Z,11.77
2023-04-16T14:36:28.858Z,11.79
2023-04-16T14:38:56.469Z,11.67
2023-04-16T14:41:24.120Z,11.60
2023-04-16T14:43:51.635Z,11.66
2023-04-16T14:46:19.233Z,11.74
2023-04-16T14:48:48.138Z,11.77
2023-04-16T14:51:15.695Z,11.72
2023-04-16T14:53:43.269Z,11.62
2023-04-16T14:56:12.852Z,11.71
2023-04-16T14:58:42.650Z,11.76
2023-04-16T15:01:10.378Z,11.79
2023-04-16T15:03:38.275Z,11.81
2023-04-16T15:06:08.681Z,11.70
2023-04-16T15:08:36.476Z,11.68
2023-04-16T15:11:04.052Z,11.68
2023-04-16T15:13:33.879Z,11.55
2023-04-16T15:16:01.749Z,11.67
2023-04-16T15:18:29.579Z,11.77
2023-04-16T15:20:57.107Z,11.77
2023-04-16T15:23:26.506Z,11.83
2023-04-16T15:25:54.059Z,11.84
2023-04-16T15:28:21.613Z,11.88
2023-04-16T15:30:49.167Z,11.79
2023-04-16T15:33:16.741Z,11.85
2023-04-16T15:35:44.378Z,11.89
2023-04-16T15:38:11.882Z,11.82
2023-04-16T15:40:42.032Z,11.82
2023-04-16T15:43:09.633Z,11.74
2023-04-16T15:45:37.432Z,11.87
2023-04-16T15:48:06.258Z,11.86
2023-04-16T15:50:34.100Z,11.93
2023-04-16T15:53:01.738Z,11.95
2023-04-16T15:55:29.921Z,11.97
2023-04-16T15:57:58.771Z,11.94
2023-04-16T16:00:27.441Z,11.91
2023-04-16T16:02:55.077Z,11.97
2023-04-16T16:05:22.923Z,11.91
2023-04-16T16:07:50.569Z,11.85
2023-04-16T16:10:18.878Z,11.89
2023-04-16T16:12:46.767Z,11.83
2023-04-16T16:15:15.761Z,11.77
2023-04-16T16:17:43.380Z,11.73
2023-04-16T16:20:12.706Z,11.68
2023-04-16T16:22:40.560Z,11.60
2023-04-16T16:25:09.949Z,11.61
2023-04-16T16:27:37.629Z,11.60
2023-04-16T16:30:07.215Z,11.62
2023-04-16T16:32:36.485Z,11.56
2023-04-16T16:35:04.226Z,11.56
2023-04-16T16:37:31.771Z,11.55
2023-04-16T16:39:59.313Z,11.43
2023-04-16T16:42:27.176Z,11.50
2023-04-16T16:44:56.677Z,11.48
2023-04-16T16:47:25.289Z,11.42
2023-04-16T16:49:54.616Z,11.44
2023-04-16T16:52:23.798Z,11.42
2023-04-16T16:54:51.340Z,11.44
2023-04-16T16:57:20.003Z,11.43
2023-04-16T16:59:48.365Z,11.42
2023-04-16T17:02:17.114Z,11.33
2023-04-16T17:04:44.864Z,11.26
2023-04-16T17:07:13.851Z,11.26
2023-04-16T17:09:41.404Z,11.32
2023-04-16T17:12:09.150Z,11.25
2023-04-16T17:14:36.736Z,11.14
2023-04-16T17:17:04.307Z,11.15
2023-04-16T17:19:31.950Z,11.14
2023-04-16T17:21:59.451Z,11.13
2023-04-16T17:24:28.344Z,11.13
2023-04-16T17:26:55.854Z,11.06
2023-04-16T17:29:25.976Z,11.09
2023-04-16T17:31:53.847Z,11.12
2023-04-16T17:34:21.558Z,11.06
2023-04-16T17:36:50.428Z,11.09
2023-04-16T17:39:18.114Z,10.98
2023-04-16T17:41:47.073Z,11.03
2023-04-16T17:44:14.786Z,11.00
2023-04-16T17:46:42.407Z,10.92
2023-04-16T17:49:10.153Z,10.94
2023-04-16T17:51:37.710Z,10.85
2023-04-16T17:54:07.030Z,10.90
2023-04-16T17:56:34.593Z,10.82
2023-04-16T17:59:03.508Z,10.81
2023-04-16T18:01:31.091Z,10.78
2023-04-16T18:03:58.933Z,10.71
2023-04-16T18:06:27.563Z,10.70
2023-04-16T18:08:55.334Z,10.68
2023-04-16T18:11:22.909Z,10.66
2023-04-16T18:13:52.684Z,10.67
2023-04-16T18:16:22.304Z,10.58
2023-04-16T18:21:17.467Z,10.52
2023-04-16T18:23:45.037Z,10.52
2023-04-16T18:26:12.870Z,10.55
2023-04-16T18:28:40.461Z,10.50
2023-04-16T18:31:08.107Z,10.58
2023-04-16T18:36:07.875Z,10.52
2023-04-16T18:38:36.976Z,10.45
2023-04-16T18:41:16.827Z,10.41
2023-04-16T18:43:44.476Z,10.36
2023-04-16T18:46:11.991Z,10.46
2023-04-16T18:48:41.449Z,10.49
2023-04-16T18:51:09.170Z,10.52
2023-04-16T18:53:36.780Z,10.51
2023-04-16T18:56:04.412Z,10.52
2023-04-16T18:58:32.022Z,10.49
2023-04-16T19:00:59.705Z,10.48
2023-04-16T19:03:29.541Z,10.42
2023-04-16T19:05:58.704Z,10.44
2023-04-16T19:08:26.265Z,10.43
2023-04-16T19:10:53.834Z,10.41
2023-04-16T19:13:21.381Z,10.43
2023-04-16T19:15:48.962Z,10.41
2023-04-16T19:18:16.548Z,10.37
2023-04-16T19:20:44.035Z,10.37
2023-04-16T19:23:13.837Z,10.35
2023-04-16T19:25:41.412Z,10.30
2023-04-16T19:28:08.937Z,10.23
2023-04-16T19:30:36.579Z,10.21
2023-04-16T19:33:04.177Z,10.17
2023-04-16T19:35:31.740Z,10.17
2023-04-16T19:37:59.327Z,10.13
2023-04-16T19:40:28.207Z,10.11
2023-04-16T19:42:55.871Z,10.14
2023-04-16T19:45:25.936Z,10.09
2023-04-16T19:47:53.614Z,10.14
2023-04-16T19:50:21.201Z,10.07
2023-04-16T19:52:48.793Z,10.10
2023-04-16T19:55:16.478Z,10.10
2023-04-16T19:57:45.358Z,10.10
2023-04-16T20:00:13.809Z,10.07
2023-04-16T20:02:41.493Z,10.01
2023-04-16T20:05:10.212Z,10.03
2023-04-16T20:07:37.696Z,10.00
2023-04-16T20:10:05.828Z,9.94
2023-04-16T20:12:33.366Z,9.96
2023-04-16T20:15:02.233Z,9.88
2023-04-16T20:17:29.789Z,9.90
2023-04-16T20:20:00.656Z,9.88
2023-04-16T20:22:28.260Z,9.81
2023-04-16T20:24:56.314Z,9.82
2023-04-16T20:27:23.868Z,9.81
2023-04-16T20:29:51.755Z,9.82
2023-04-16T20:32:20.608Z,9.83
2023-04-16T20:34:48.734Z,9.79
2023-04-16T20:37:16.329Z,9.82
2023-04-16T20:39:45.058Z,9.82
2023-04-16T20:42:12.794Z,9.83
2023-04-16T20:44:41.156Z,9.85
2023-04-16T20:47:09.218Z,9.80
2023-04-16T20:49:40.134Z,9.80
2023-04-16T20:52:07.873Z,9.85
2023-04-16T20:54:35.574Z,9.86
2023-04-16T20:57:04.847Z,9.86
2023-04-16T20:59:32.751Z,9.83
2023-04-16T21:02:00.491Z,9.88
2023-04-16T21:04:28.150Z,9.90
2023-04-16T21:06:57.191Z,9.84
2023-04-16T21:09:24.712Z,9.74
2023-04-16T21:11:52.231Z,9.72
2023-04-16T21:14:19.784Z,9.63
2023-04-16T21:16:47.295Z,9.64
2023-04-16T21:19:14.876Z,9.62
2023-04-16T21:21:42.559Z,9.62
2023-04-16T21:24:11.571Z,9.71
2023-04-16T21:26:39.120Z,9.70
2023-04-16T21:29:06.654Z,9.72
2023-04-16T21:31:34.231Z,9.69
2023-04-16T21:34:01.794Z,9.60
2023-04-16T21:36:31.867Z,9.61
2023-04-16T21:38:59.440Z,9.65
2023-04-16T21:41:28.589Z,9.65
2023-04-16T21:43:56.164Z,9.61
2023-04-16T21:46:23.763Z,9.58
2023-04-16T21:48:51.376Z,9.62
2023-04-16T21:51:19.949Z,9.61
2023-04-16T21:53:47.448Z,9.60
2023-04-16T21:56:15.087Z,9.60
2023-04-16T21:58:43.971Z,9.59
2023-04-16T22:01:11.576Z,9.57
2023-04-16T22:03:40.438Z,9.57
2023-04-16T22:06:08.787Z,9.54
2023-04-16T22:08:36.369Z,9.49
2023-04-16T22:11:04.222Z,9.45
2023-04-16T22:13:32.665Z,9.44
2023-04-16T22:16:02.272Z,9.46
2023-04-16T22:18:32.968Z,9.45
2023-04-16T22:21:01.261Z,9.43
2023-04-16T22:23:28.848Z,9.42
2023-04-16T22:25:56.961Z,9.41
2023-04-16T22:28:24.893Z,9.40
2023-04-16T22:30:52.422Z,9.36
2023-04-16T22:33:21.252Z,9.37
2023-04-16T22:35:48.787Z,9.39
2023-04-16T22:38:16.387Z,9.39
2023-04-16T22:40:44.020Z,9.40
2023-04-16T22:43:11.494Z,9.37
2023-04-16T22:45:39.049Z,9.36
2023-04-16T22:48:06.867Z,9.41
2023-04-16T22:50:35.881Z,9.47
2023-04-16T22:53:03.420Z,9.43
2023-04-16T22:55:30.942Z,9.45
2023-04-16T22:57:58.449Z,9.45
2023-04-16T23:00:25.973Z,9.48
2023-04-16T23:02:53.616Z,9.46
2023-04-16T23:05:21.324Z,9.45
2023-04-16T23:07:50.142Z,9.42
2023-04-16T23:10:17.765Z,9.41
2023-04-16T23:12:45.399Z,9.38
2023-04-16T23:15:12.906Z,9.32
2023-04-16T23:17:40.631Z,9.33
2023-04-16T23:20:09.983Z,9.31
2023-04-16T23:22:37.490Z,9.29
2023-04-16T23:25:07.720Z,9.29
2023-04-16T23:27:35.265Z,9.31
2023-04-16T23:30:03.149Z,9.36
2023-04-16T23:32:30.781Z,9.28
2023-04-16T23:34:58.565Z,9.28
2023-04-16T23:37:26.121Z,9.23
2023-04-16T23:39:53.942Z,9.25
2023-04-16T23:42:22.815Z,9.28
2023-04-16T23:44:50.348Z,9.27
2023-04-16T23:47:18.062Z,9.20
2023-04-16T23:49:45.706Z,9.14
2023-04-16T23:52:13.284Z,9.08
2023-04-16T23:54:40.777Z,9.03
2023-04-16T23:57:08.265Z,8.96
2023-04-16T23:59:37.141Z,8.97
